TimeEDT,TemperatureF,Dew PointF,Humidity,Sea Level PressureIn,VisibilityMPH,Wind Direction,Wind SpeedMPH,Gust SpeedMPH,PrecipitationIn,Events,Conditions,WindDirDegrees,DateUTC
12:54 AM,57.0,55.0,93,30.07,10.0,Calm,Calm,-,N/A,,Clear,0,2013-08-19 04:54:00
1:54 AM,55.9,55.0,97,30.05,3.0,Calm,Calm,-,N/A,,Clear,0,2013-08-19 05:54:00
2:54 AM,55.0,54.0,96,30.04,9.0,Calm,Calm,-,N/A,,Clear,0,2013-08-19 06:54:00
3:54 AM,54.0,52.0,93,30.04,3.0,Calm,Calm,-,N/A,,Clear,0,2013-08-19 07:54:00
4:54 AM,52.0,51.1,97,30.02,5.0,West,3.5,-,N/A,,Clear,270,2013-08-19 08:54:00
5:54 AM,51.1,50.0,96,30.03,9.0,Calm,Calm,-,N/A,,Clear,0,2013-08-19 09:54:00
6:54 AM,53.1,52.0,96,30.03,7.0,Calm,Calm,-,0.01,,Clear,0,2013-08-19 10:54:00
7:54 AM,61.0,57.9,90,30.02,10.0,Calm,Calm,-,N/A,,Clear,0,2013-08-19 11:54:00
8:54 AM,68.0,60.1,76,30.00,10.0,Calm,Calm,-,N/A,,Clear,0,2013-08-19 12:54:00
9:54 AM,72.0,59.0,64,30.00,10.0,Variable,3.5,-,N/A,,Clear,0,2013-08-19 13:54:00
10:54 AM,75.0,60.1,60,29.98,10.0,Variable,3.5,-,N/A,,Clear,0,2013-08-19 14:54:00
11:54 AM,79.0,61.0,54,29.96,10.0,SSW,6.9,-,N/A,,Clear,210,2013-08-19 15:54:00
12:54 PM,82.9,57.0,41,29.94,10.0,West,8.1,-,N/A,,Clear,270,2013-08-19 16:54:00
1:54 PM,82.9,55.0,38,29.93,10.0,WNW,8.1,16.1,N/A,,Clear,290,2013-08-19 17:54:00
2:54 PM,84.0,57.0,40,29.92,10.0,WNW,5.8,-,N/A,,Clear,290,2013-08-19 18:54:00
3:54 PM,82.0,57.9,44,29.93,10.0,WNW,6.9,16.1,N/A,,Clear,290,2013-08-19 19:54:00
4:54 PM,82.0,59.0,45,29.93,10.0,Variable,6.9,-,N/A,,Clear,0,2013-08-19 20:54:00
5:54 PM,81.0,60.1,49,29.93,10.0,West,4.6,-,N/A,,Clear,280,2013-08-19 21:54:00
6:54 PM,78.1,59.0,52,29.94,10.0,WNW,4.6,-,N/A,,Clear,290,2013-08-19 22:54:00
7:54 PM,72.0,60.1,66,29.95,10.0,Calm,Calm,-,N/A,,Clear,0,2013-08-19 23:54:00
8:54 PM,66.9,61.0,81,29.96,10.0,Calm,Calm,-,N/A,,Clear,0,2013-08-20 00:54:00
9:54 PM,64.0,60.1,87,29.97,10.0,Calm,Calm,-,N/A,,Clear,0,2013-08-20 01:54:00
10:54 PM,62.1,60.1,93,29.97,10.0,Calm,Calm,-,N/A,,Clear,0,2013-08-20 02:54:00
11:54 PM,60.1,59.0,96,29.98,10.0,Calm,Calm,-,N/A,,Clear,0,2013-08-20 03:54:00